createdAt,value
2023-04-28T00:01:54.385Z,7.42
2023-04-28T00:04:22.447Z,7.49
2023-04-28T00:06:51.600Z,7.52
2023-04-28T00:09:19.106Z,7.47
2023-04-28T00:11:47.053Z,7.50
2023-04-28T00:14:14.900Z,7.45
2023-04-28T00:16:42.995Z,7.51
2023-04-28T00:19:10.686Z,7.48
2023-04-28T00:21:38.158Z,7.41
2023-04-28T00:24:07.867Z,7.30
2023-04-28T00:26:35.524Z,7.35
2023-04-28T00:29:03.135Z,7.31
2023-04-28T00:31:30.767Z,7.22
2023-04-28T00:33:58.307Z,7.25
2023-04-28T00:36:25.841Z,7.19
2023-04-28T00:38:53.375Z,7.26
2023-04-28T00:41:22.328Z,7.30
2023-04-28T00:43:50.556Z,7.24
2023-04-28T00:46:23.211Z,7.33
2023-04-28T00:48:51.608Z,7.15
2023-04-28T00:51:19.194Z,7.08
2023-04-28T00:53:46.773Z,7.18
2023-04-28T00:56:14.461Z,7.18
2023-04-28T00:58:43.725Z,7.10
2023-04-28T01:01:11.719Z,7.14
2023-04-28T01:03:41.404Z,7.12
2023-04-28T01:06:10.612Z,7.26
2023-04-28T01:08:40.089Z,7.42
2023-04-28T01:11:14.901Z,7.26
2023-04-28T01:13:57.298Z,7.34
2023-04-28T01:16:26.899Z,7.28
2023-04-28T01:18:55.054Z,7.47
2023-04-28T01:21:30.371Z,7.14
2023-04-28T01:23:59.674Z,7.10
2023-04-28T01:26:27.346Z,6.97
2023-04-28T01:28:55.046Z,6.93
2023-04-28T01:31:22.582Z,6.95
2023-04-28T01:33:50.161Z,6.92
2023-04-28T01:36:18.067Z,7.08
2023-04-28T01:38:45.844Z,6.97
2023-04-28T01:41:15.723Z,6.97
2023-04-28T01:43:44.283Z,7.23
2023-04-28T01:46:11.900Z,7.27
2023-04-28T01:48:39.444Z,7.14
2023-04-28T01:51:07.097Z,7.02
2023-04-28T01:53:34.560Z,6.90
2023-04-28T01:56:02.530Z,6.95
2023-04-28T01:58:31.347Z,6.87
2023-04-28T02:00:59.496Z,6.83
2023-04-28T02:03:28.073Z,6.77
2023-04-28T02:05:55.798Z,6.82
2023-04-28T02:08:23.469Z,6.87
2023-04-28T02:10:52.757Z,6.85
2023-04-28T02:13:22.086Z,6.89
2023-04-28T02:15:50.933Z,6.92
2023-04-28T02:18:18.433Z,6.92
2023-04-28T02:20:46.285Z,7.09
2023-04-28T02:23:13.858Z,7.10
2023-04-28T02:25:41.482Z,7.14
2023-04-28T02:28:08.983Z,7.22
2023-04-28T02:30:36.555Z,7.14
2023-04-28T02:33:05.568Z,7.14
2023-04-28T02:35:33.240Z,7.11
2023-04-28T02:38:00.833Z,7.15
2023-04-28T02:40:28.439Z,7.11
2023-04-28T02:42:56.061Z,7.21
2023-04-28T02:45:23.602Z,7.23
2023-04-28T02:47:51.140Z,7.20
2023-04-28T02:50:20.325Z,7.25
2023-04-28T02:52:49.079Z,7.25
2023-04-28T02:55:23.692Z,7.31
2023-04-28T02:57:52.351Z,7.42
2023-04-28T03:00:20.441Z,7.37
2023-04-28T03:02:50.242Z,7.34
2023-04-28T03:05:17.888Z,7.39
2023-04-28T03:07:46.934Z,7.38
2023-04-28T03:10:14.500Z,7.36
2023-04-28T03:12:41.975Z,7.35
2023-04-28T03:15:12.074Z,7.35
2023-04-28T03:17:42.243Z,7.35
2023-04-28T03:20:11.105Z,7.39
2023-04-28T03:22:38.711Z,7.41
2023-04-28T03:25:08.237Z,7.43
2023-04-28T03:27:43.557Z,7.37
2023-04-28T03:30:13.086Z,7.40
2023-04-28T03:32:41.303Z,7.41
2023-04-28T03:35:09.877Z,7.43
2023-04-28T03:37:38.652Z,7.47
2023-04-28T03:40:09.582Z,7.50
2023-04-28T03:42:55.520Z,7.48
2023-04-28T03:45:45.876Z,7.50
2023-04-28T03:48:13.446Z,7.51
2023-04-28T03:50:42.495Z,7.49
2023-04-28T03:53:10.131Z,7.51
2023-04-28T03:55:39.809Z,7.49
2023-04-28T03:58:07.349Z,7.49
2023-04-28T04:00:35.476Z,7.51
2023-04-28T04:03:03.093Z,7.51
2023-04-28T04:05:31.038Z,7.50
2023-04-28T04:07:58.640Z,7.57
2023-04-28T04:10:26.126Z,7.58
2023-04-28T04:12:55.192Z,7.59
2023-04-28T04:15:22.728Z,7.62
2023-04-28T04:17:50.428Z,7.62
2023-04-28T04:20:18.127Z,7.66
2023-04-28T04:22:46.875Z,7.64
2023-04-28T04:25:15.668Z,7.64
2023-04-28T04:27:44.735Z,7.67
2023-04-28T04:30:14.204Z,7.66
2023-04-28T04:32:41.970Z,7.69
2023-04-28T04:35:10.422Z,7.76
2023-04-28T04:37:38.156Z,7.80
2023-04-28T04:40:07.784Z,7.74
2023-04-28T04:42:41.446Z,7.79
2023-04-28T04:45:20.197Z,7.76
2023-04-28T04:47:48.431Z,7.78
2023-04-28T04:50:16.216Z,7.74
2023-04-28T04:52:43.977Z,7.79
2023-04-28T04:55:12.142Z,7.87
2023-04-28T04:57:42.128Z,7.77
2023-04-28T05:00:16.921Z,7.83
2023-04-28T05:02:46.203Z,7.86
2023-04-28T05:05:22.080Z,7.82
2023-04-28T05:08:03.701Z,7.90
2023-04-28T05:10:31.527Z,7.94
2023-04-28T05:13:00.224Z,7.95
2023-04-28T05:15:27.891Z,8.00
2023-04-28T05:18:22.606Z,8.08
2023-04-28T05:20:51.042Z,8.04
2023-04-28T05:23:19.809Z,8.05
2023-04-28T05:25:48.469Z,8.12
2023-04-28T05:28:16.153Z,8.12
2023-04-28T05:30:45.753Z,8.16
2023-04-28T05:33:14.900Z,8.15
2023-04-28T05:35:44.749Z,8.27
2023-04-28T05:38:12.615Z,8.27
2023-04-28T05:40:40.291Z,8.29
2023-04-28T05:43:07.880Z,8.34
2023-04-28T05:45:35.995Z,8.32
2023-04-28T05:48:05.150Z,8.38
2023-04-28T05:50:33.250Z,8.41
2023-04-28T05:53:03.867Z,8.41
2023-04-28T05:55:31.461Z,8.46
2023-04-28T05:57:59.844Z,8.47
2023-04-28T06:00:28.000Z,8.50
2023-04-28T06:02:59.660Z,8.50
2023-04-28T06:05:27.688Z,8.56
2023-04-28T06:07:56.913Z,8.61
2023-04-28T06:10:27.144Z,8.65
2023-04-28T06:12:54.646Z,8.68
2023-04-28T06:15:22.241Z,8.73
2023-04-28T06:17:51.251Z,8.73
2023-04-28T06:20:18.992Z,8.76
2023-04-28T06:22:46.602Z,8.71
2023-04-28T06:25:14.168Z,8.73
2023-04-28T06:27:48.765Z,8.76
2023-04-28T06:30:19.165Z,8.85
2023-04-28T06:32:46.866Z,8.85
2023-04-28T06:35:14.564Z,8.84
2023-04-28T06:37:42.102Z,8.87
2023-04-28T06:40:10.692Z,8.92
2023-04-28T06:42:42.041Z,8.96
2023-04-28T06:45:19.923Z,8.93
2023-04-28T06:47:47.650Z,8.94
2023-04-28T06:50:15.209Z,8.97
2023-04-28T06:52:42.690Z,8.99
2023-04-28T06:55:10.880Z,9.00
2023-04-28T06:57:38.731Z,8.98
2023-04-28T07:00:08.078Z,9.04
2023-04-28T07:02:37.808Z,9.15
2023-04-28T07:05:06.366Z,9.28
2023-04-28T07:07:33.882Z,9.19
2023-04-28T07:10:01.480Z,9.21
2023-04-28T07:12:29.439Z,9.29
2023-04-28T07:14:56.993Z,9.29
2023-04-28T07:17:24.798Z,9.27
2023-04-28T07:19:53.674Z,9.25
2023-04-28T07:22:21.162Z,9.38
2023-04-28T07:24:48.650Z,9.31
2023-04-28T07:27:16.301Z,9.34
2023-04-28T07:29:43.801Z,9.39
2023-04-28T07:32:11.460Z,9.32
2023-04-28T07:34:39.226Z,9.35
2023-04-28T07:37:08.112Z,9.30
2023-04-28T07:39:36.020Z,9.28
2023-04-28T07:42:04.056Z,9.25
2023-04-28T07:44:32.696Z,9.19
2023-04-28T07:47:01.908Z,9.14
2023-04-28T07:49:29.647Z,9.15
2023-04-28T07:51:57.265Z,9.16
2023-04-28T07:54:26.132Z,9.15
2023-04-28T07:56:53.775Z,9.06
2023-04-28T07:59:21.311Z,9.12
2023-04-28T08:01:48.817Z,9.12
2023-04-28T08:04:17.225Z,9.13
2023-04-28T08:06:45.704Z,9.12
2023-04-28T08:09:13.321Z,9.08
2023-04-28T08:11:42.466Z,9.07
2023-04-28T08:14:10.132Z,9.09
2023-04-28T08:16:40.407Z,9.05
2023-04-28T08:19:08.718Z,9.12
2023-04-28T08:21:36.334Z,9.18
2023-04-28T08:24:03.888Z,9.14
2023-04-28T08:26:31.426Z,9.20
2023-04-28T08:29:00.208Z,9.14
2023-04-28T08:31:27.802Z,9.05
2023-04-28T08:33:55.810Z,8.94
2023-04-28T08:36:25.092Z,8.89
2023-04-28T08:38:52.739Z,8.95
2023-04-28T08:41:21.714Z,8.90
2023-04-28T08:43:50.573Z,8.97
2023-04-28T08:46:19.533Z,8.96
2023-04-28T08:48:47.123Z,8.93
2023-04-28T08:51:16.777Z,9.10
2023-04-28T08:54:11.783Z,8.95
2023-04-28T08:56:34.918Z,8.93
2023-04-28T08:59:04.052Z,8.90
2023-04-28T09:01:33.311Z,8.98
2023-04-28T09:04:02.504Z,9.03
2023-04-28T09:06:33.619Z,9.12
2023-04-28T09:09:20.078Z,9.09
2023-04-28T09:11:55.421Z,9.04
2023-04-28T09:14:23.494Z,9.04
2023-04-28T09:16:52.912Z,8.97
2023-04-28T09:19:21.334Z,9.02
2023-04-28T09:21:53.862Z,9.06
2023-04-28T09:24:29.527Z,9.02
2023-04-28T09:26:57.094Z,9.09
2023-04-28T09:29:24.792Z,9.18
2023-04-28T09:31:54.669Z,9.14
2023-04-28T09:34:22.747Z,9.20
2023-04-28T09:36:50.614Z,9.09
2023-04-28T09:39:29.523Z,9.13
2023-04-28T09:41:57.341Z,9.14
2023-04-28T09:44:24.896Z,9.13
2023-04-28T09:46:53.737Z,9.01
2023-04-28T09:49:21.740Z,8.99
2023-04-28T09:51:50.254Z,9.05
2023-04-28T09:54:18.400Z,9.02
2023-04-28T09:56:48.619Z,8.96
2023-04-28T09:59:16.244Z,9.02
2023-04-28T10:01:44.823Z,9.10
2023-04-28T10:04:14.124Z,9.16
2023-04-28T10:06:42.135Z,9.25
2023-04-28T10:09:10.109Z,9.20
2023-04-28T10:11:37.845Z,9.22
2023-04-28T10:14:05.338Z,9.32
2023-04-28T10:16:33.289Z,9.31
2023-04-28T10:19:03.146Z,9.30
2023-04-28T10:21:34.668Z,9.29
2023-04-28T10:24:11.229Z,9.27
2023-04-28T10:26:58.945Z,9.12
2023-04-28T10:29:27.280Z,9.04
2023-04-28T10:32:20.994Z,9.02
2023-04-28T10:34:48.914Z,8.99
2023-04-28T10:37:19.000Z,9.02
2023-04-28T10:40:25.000Z,9.13
2023-04-28T10:42:54.905Z,9.23
2023-04-28T10:46:00.868Z,9.26
2023-04-28T10:48:57.180Z,9.31
2023-04-28T10:51:32.963Z,9.35
2023-04-28T10:54:21.772Z,9.42
2023-04-28T10:57:20.788Z,9.46
2023-04-28T10:59:49.290Z,9.48
2023-04-28T11:02:44.409Z,9.54
2023-04-28T11:05:14.434Z,9.60
2023-04-28T11:07:42.270Z,9.65
2023-04-28T11:10:11.353Z,9.70
2023-04-28T11:13:17.142Z,9.72
2023-04-28T11:15:44.804Z,9.76
2023-04-28T11:18:18.224Z,9.77
2023-04-28T11:20:47.852Z,9.83
2023-04-28T11:23:15.442Z,9.85
2023-04-28T11:25:57.842Z,9.91
2023-04-28T11:28:25.391Z,10.04
2023-04-28T11:30:54.227Z,10.19
2023-04-28T11:33:22.216Z,10.18
2023-04-28T11:35:49.755Z,10.20
2023-04-28T11:38:17.282Z,10.20
2023-04-28T11:40:58.362Z,10.13
2023-04-28T11:43:43.788Z,10.06
2023-04-28T11:46:17.935Z,9.97
2023-04-28T11:48:45.716Z,9.83
2023-04-28T11:51:34.924Z,9.77
2023-04-28T11:54:03.525Z,9.84
2023-04-28T11:56:32.721Z,9.87
2023-04-28T11:59:05.308Z,9.93
2023-04-28T12:01:34.079Z,10.08
2023-04-28T12:04:01.866Z,10.29
2023-04-28T12:06:29.802Z,10.45
2023-04-28T12:08:57.939Z,10.46
2023-04-28T12:11:25.991Z,10.49
2023-04-28T12:14:10.803Z,10.50
2023-04-28T12:16:44.977Z,10.52
2023-04-28T12:19:15.100Z,10.61
2023-04-28T12:21:43.139Z,10.55
2023-04-28T12:24:18.165Z,10.62
2023-04-28T12:26:45.734Z,10.57
2023-04-28T12:29:39.293Z,10.67
2023-04-28T12:32:08.201Z,10.84
2023-04-28T12:34:36.336Z,10.95
2023-04-28T12:37:05.913Z,10.93
2023-04-28T12:39:34.225Z,11.08
2023-04-28T12:42:02.408Z,11.12
2023-04-28T12:44:35.371Z,11.14
2023-04-28T12:47:05.802Z,11.12
2023-04-28T12:49:33.889Z,11.25
2023-04-28T12:52:01.727Z,11.31
2023-04-28T12:54:29.260Z,11.35
2023-04-28T12:56:56.885Z,11.48
2023-04-28T12:59:24.820Z,11.40
2023-04-28T13:01:52.353Z,11.36
2023-04-28T13:04:21.625Z,11.27
2023-04-28T13:06:49.453Z,11.29
2023-04-28T13:09:17.616Z,11.20
2023-04-28T13:11:45.135Z,11.20
2023-04-28T13:14:13.231Z,11.27
2023-04-28T13:16:40.789Z,11.26
2023-04-28T13:19:10.604Z,11.22
2023-04-28T13:21:39.859Z,11.20
2023-04-28T13:24:07.868Z,11.22
2023-04-28T13:26:36.007Z,11.19
2023-04-28T13:29:04.471Z,11.13
2023-04-28T13:31:32.240Z,11.13
2023-04-28T13:34:01.969Z,11.16
2023-04-28T13:36:30.354Z,11.15
2023-04-28T13:39:01.607Z,11.17
2023-04-28T13:41:29.912Z,11.17
2023-04-28T13:43:57.413Z,11.21
2023-04-28T13:46:24.968Z,11.31
2023-04-28T13:48:52.511Z,11.31
2023-04-28T13:51:20.037Z,11.33
2023-04-28T13:53:47.690Z,11.35
2023-04-28T13:56:16.894Z,11.41
2023-04-28T13:58:44.463Z,11.36
2023-04-28T14:01:12.056Z,11.30
2023-04-28T14:03:42.061Z,11.30
2023-04-28T14:06:09.709Z,11.36
2023-04-28T14:08:37.218Z,11.43
2023-04-28T14:11:04.908Z,11.44
2023-04-28T14:13:33.934Z,11.44
2023-04-28T14:16:01.791Z,11.43
2023-04-28T14:18:29.331Z,11.37
2023-04-28T14:20:57.025Z,11.34
2023-04-28T14:23:24.609Z,11.31
2023-04-28T14:25:56.047Z,11.22
2023-04-28T14:28:23.854Z,11.20
2023-04-28T14:30:54.509Z,11.22
2023-04-28T14:33:22.208Z,11.27
2023-04-28T14:35:49.793Z,11.23
2023-04-28T14:38:17.303Z,11.22
2023-04-28T14:40:44.835Z,11.24
2023-04-28T14:43:13.818Z,11.20
2023-04-28T14:45:41.432Z,11.19
2023-04-28T14:48:10.751Z,11.24
2023-04-28T14:50:38.803Z,11.18
2023-04-28T14:53:07.389Z,11.12
2023-04-28T14:55:35.021Z,11.01
2023-04-28T14:58:02.901Z,10.96
2023-04-28T15:00:30.771Z,10.96
2023-04-28T15:02:58.516Z,11.02
2023-04-28T15:05:27.507Z,11.08
2023-04-28T15:07:55.033Z,10.97
2023-04-28T15:10:22.522Z,10.92
2023-04-28T15:12:50.088Z,10.94
2023-04-28T15:15:17.666Z,11.00
2023-04-28T15:17:45.961Z,11.01
2023-04-28T15:20:13.531Z,11.06
2023-04-28T15:22:44.491Z,10.98
2023-04-28T15:25:12.032Z,11.01
2023-04-28T15:27:41.189Z,10.93
2023-04-28T15:30:10.849Z,10.89
2023-04-28T15:32:38.638Z,10.87
2023-04-28T15:35:07.283Z,10.85
2023-04-28T15:37:43.776Z,10.86
2023-04-28T15:40:13.078Z,10.82
2023-04-28T15:42:42.198Z,10.77
2023-04-28T15:45:11.843Z,10.80
2023-04-28T15:47:40.576Z,10.78
2023-04-28T15:50:10.534Z,10.83
2023-04-28T15:52:39.825Z,10.93
2023-04-28T15:55:10.122Z,10.94
2023-04-28T15:57:37.712Z,10.97
2023-04-28T16:00:06.253Z,11.02
2023-04-28T16:02:35.615Z,10.96
2023-04-28T16:05:04.618Z,10.97
2023-04-28T16:07:37.850Z,11.00
2023-04-28T16:10:08.174Z,11.01
2023-04-28T16:12:37.626Z,10.96
2023-04-28T16:15:05.620Z,10.92
2023-04-28T16:17:34.057Z,10.91
2023-04-28T16:20:01.852Z,10.92
2023-04-28T16:22:29.741Z,10.86
2023-04-28T16:24:57.681Z,10.86
2023-04-28T16:27:25.181Z,10.86
2023-04-28T16:29:54.127Z,10.88
2023-04-28T16:32:21.811Z,10.84
2023-04-28T16:34:49.425Z,10.79
2023-04-28T16:37:17.090Z,10.80
2023-04-28T16:39:44.691Z,10.78
2023-04-28T16:42:12.370Z,10.76
2023-04-28T16:44:39.837Z,10.73
2023-04-28T16:47:08.716Z,10.76
2023-04-28T16:49:36.201Z,10.76
2023-04-28T16:52:05.269Z,10.75
2023-04-28T16:54:33.501Z,10.74
2023-04-28T16:57:04.080Z,10.79
2023-04-28T16:59:33.234Z,10.76
2023-04-28T17:02:03.730Z,10.72
2023-04-28T17:04:32.806Z,10.72
2023-04-28T17:07:03.726Z,10.69
2023-04-28T17:09:32.978Z,10.63
2023-04-28T17:12:00.624Z,10.68
2023-04-28T17:14:28.223Z,10.66
2023-04-28T17:16:56.427Z,10.65
2023-04-28T17:19:23.936Z,10.68
2023-04-28T17:21:55.339Z,10.65
2023-04-28T17:24:22.938Z,10.64
2023-04-28T17:26:51.089Z,10.61
2023-04-28T17:29:19.020Z,10.60
2023-04-28T17:31:46.571Z,10.69
2023-04-28T17:34:14.072Z,10.65
2023-04-28T17:36:42.136Z,10.67
2023-04-28T17:39:10.978Z,10.63
2023-04-28T17:41:38.572Z,10.65
2023-04-28T17:44:06.692Z,10.65
2023-04-28T17:46:34.209Z,10.68
2023-04-28T17:49:01.695Z,10.63
2023-04-28T17:51:29.192Z,10.65
2023-04-28T17:53:57.625Z,10.64
2023-04-28T17:56:26.986Z,10.62
2023-04-28T17:58:55.126Z,10.61
2023-04-28T18:01:22.769Z,10.65
2023-04-28T18:03:51.692Z,10.68
2023-04-28T18:06:22.284Z,10.65
2023-04-28T18:08:49.963Z,10.66
2023-04-28T18:11:17.494Z,10.67
2023-04-28T18:13:46.363Z,10.66
2023-04-28T18:16:15.033Z,10.72
2023-04-28T18:18:43.012Z,10.76
2023-04-28T18:21:11.070Z,10.69
2023-04-28T18:23:39.282Z,10.66
2023-04-28T18:26:06.768Z,10.65
2023-04-28T18:28:34.733Z,10.66
2023-04-28T18:31:05.306Z,10.71
2023-04-28T18:33:32.951Z,10.69
2023-04-28T18:36:01.822Z,10.70
2023-04-28T18:38:30.951Z,10.71
2023-04-28T18:40:58.983Z,10.75
2023-04-28T18:43:27.988Z,10.71
2023-04-28T18:45:55.496Z,10.77
2023-04-28T18:48:25.694Z,10.71
2023-04-28T18:50:53.888Z,10.66
2023-04-28T18:53:21.397Z,10.64
2023-04-28T18:55:49.432Z,10.73
2023-04-28T18:58:16.928Z,10.68
2023-04-28T19:00:45.333Z,10.68
2023-04-28T19:03:13.541Z,10.62
2023-04-28T19:05:44.640Z,10.68
2023-04-28T19:08:13.022Z,10.69
2023-04-28T19:10:41.107Z,10.72
2023-04-28T19:13:08.637Z,10.76
2023-04-28T19:15:36.152Z,10.78
2023-04-28T19:18:05.795Z,10.79
2023-04-28T19:20:34.925Z,10.77
2023-04-28T19:23:03.773Z,10.84
2023-04-28T19:25:33.550Z,10.79
2023-04-28T19:28:01.099Z,10.78
2023-04-28T19:30:28.832Z,10.77
2023-04-28T19:32:56.364Z,10.79
2023-04-28T19:35:24.209Z,10.77
2023-04-28T19:37:51.803Z,10.91
2023-04-28T19:40:20.809Z,10.79
2023-04-28T19:42:48.388Z,10.79
2023-04-28T19:45:17.005Z,10.76
2023-04-28T19:47:44.781Z,10.75
2023-04-28T19:50:12.384Z,10.79
2023-04-28T19:52:39.867Z,10.82
2023-04-28T19:55:08.892Z,10.81
2023-04-28T19:57:37.739Z,10.81
2023-04-28T20:00:08.098Z,10.83
2023-04-28T20:02:35.726Z,10.81
2023-04-28T20:05:03.659Z,10.84
2023-04-28T20:07:31.216Z,10.79
2023-04-28T20:09:58.918Z,10.75
2023-04-28T20:12:26.433Z,10.74
2023-04-28T20:14:55.740Z,10.73
2023-04-28T20:17:23.914Z,10.66
2023-04-28T20:19:52.056Z,10.66
2023-04-28T20:22:19.812Z,10.61
2023-04-28T20:24:47.344Z,10.57
2023-04-28T20:27:15.173Z,10.50
2023-04-28T20:29:42.678Z,10.44
2023-04-28T20:32:11.610Z,10.41
2023-04-28T20:34:39.423Z,10.41
2023-04-28T20:37:08.073Z,10.43
2023-04-28T20:39:35.647Z,10.29
2023-04-28T20:42:03.480Z,10.28
2023-04-28T20:44:30.953Z,10.26
2023-04-28T20:46:59.168Z,10.21
2023-04-28T20:49:28.279Z,10.21
2023-04-28T20:52:03.140Z,10.18
2023-04-28T20:54:32.635Z,10.16
2023-04-28T20:57:00.310Z,10.14
2023-04-28T20:59:28.681Z,10.16
2023-04-28T21:01:57.556Z,10.13
2023-04-28T21:04:25.440Z,10.17
2023-04-28T21:06:54.278Z,10.18
2023-04-28T21:09:24.833Z,10.19
2023-04-28T21:11:52.383Z,10.13
2023-04-28T21:14:20.175Z,10.04
2023-04-28T21:16:47.845Z,9.99
2023-04-28T21:19:15.431Z,9.99
2023-04-28T21:21:42.969Z,9.94
2023-04-28T21:24:12.589Z,10.03
2023-04-28T21:26:40.717Z,9.98
2023-04-28T21:29:09.273Z,9.86
2023-04-28T21:31:37.263Z,9.94
2023-04-28T21:34:04.813Z,9.99
2023-04-28T21:36:32.456Z,9.99
2023-04-28T21:38:59.923Z,9.97
2023-04-28T21:41:28.740Z,9.98
2023-04-28T21:43:56.210Z,9.97
2023-04-28T21:46:24.038Z,10.08
2023-04-28T21:48:51.667Z,10.03
2023-04-28T21:51:19.237Z,9.93
2023-04-28T21:53:46.710Z,9.93
2023-04-28T21:56:15.874Z,9.90
2023-04-28T21:58:45.058Z,9.87
2023-04-28T22:01:13.055Z,9.87
2023-04-28T22:03:40.910Z,9.86
2023-04-28T22:06:09.030Z,9.89
2023-04-28T22:08:36.597Z,9.86
2023-04-28T22:11:04.713Z,9.83
2023-04-28T22:13:32.195Z,9.90
2023-04-28T22:16:01.725Z,9.80
2023-04-28T22:18:29.871Z,9.80
2023-04-28T22:20:57.449Z,9.80
2023-04-28T22:23:25.022Z,9.80
2023-04-28T22:25:52.548Z,9.80
2023-04-28T22:28:20.019Z,9.85
2023-04-28T22:30:47.806Z,9.91
2023-04-28T22:33:17.044Z,9.94
2023-04-28T22:35:44.551Z,9.95
2023-04-28T22:38:12.035Z,10.00
2023-04-28T22:40:39.509Z,10.02
2023-04-28T22:43:06.989Z,10.05
2023-04-28T22:45:34.470Z,10.04
2023-04-28T22:48:02.522Z,10.15
2023-04-28T22:50:31.469Z,10.17
2023-04-28T22:52:58.982Z,10.14
2023-04-28T22:55:26.674Z,10.24
2023-04-28T22:57:54.153Z,10.21
2023-04-28T23:00:21.834Z,10.23
2023-04-28T23:02:49.431Z,10.21
2023-04-28T23:05:17.878Z,10.17
2023-04-28T23:07:46.698Z,10.15
2023-04-28T23:10:14.772Z,10.12
2023-04-28T23:12:42.308Z,10.21
2023-04-28T23:15:10.473Z,10.19
2023-04-28T23:17:38.225Z,10.17
2023-04-28T23:20:07.372Z,10.13
2023-04-28T23:22:34.843Z,10.15
2023-04-28T23:25:04.292Z,10.16
2023-04-28T23:27:32.075Z,10.16
2023-04-28T23:29:59.621Z,10.17
2023-04-28T23:32:27.139Z,10.17
2023-04-28T23:34:54.951Z,10.19
2023-04-28T23:37:22.486Z,10.21
2023-04-28T23:39:50.172Z,10.20
2023-04-28T23:42:19.172Z,10.22
2023-04-28T23:44:46.655Z,10.28
2023-04-28T23:47:14.415Z,10.24
2023-04-28T23:49:41.884Z,10.23
2023-04-28T23:52:09.425Z,10.32
2023-04-28T23:54:36.947Z,10.29
2023-04-28T23:57:04.553Z,10.30
2023-04-28T23:59:33.380Z,10.27
